Terminal Aerodrome Forecast
Issued by NWS Mt. Holly, NJ

Home | Current Version | Previous Version | Text Only | Print | Product List | Glossary On
Versions: 1 2 3 4 5 6 7 8 9 10 11 12 13 14
597
FTUS41 KPHI 241749
TAFTTN
TAF
KTTN 241749Z 2418/2518 27006KT P6SM SCT250
     FM250000 17009KT P6SM SCT250
     FM250300 21004KT P6SM SCT150 BKN250
      TEMPO 2507/2511 6SM -SHRA OVC060
     FM251100 21005KT P6SM BKN060 OVC150
     FM251400 26008KT P6SM SCT070 BKN150=

USA.gov is the U.S. government's official web portal to all federal, state and local government web resources and services.